Time;durP1;ratioP1;P1;durP2;ratioP2;P2;SDS_P1;SDS_P2;PMS_P1;PMS_P2;Temp;Humidity;BMP_temperature;BMP_pressure;BME280_temperature;BME280_humidity;BME280_pressure;Samples;Min_cycle;Max_cycle;Signal;HPM_P1;HPM_P2
2023/01/07 00:01:41;;;;;;;38.95;20.65;;;8.00;99.90;;;;;;5094557;28;20794;-78
2023/01/07 00:04:11;;;;;;;44.87;21.93;;;8.00;99.90;;;;;;5096974;28;20907;-78
2023/01/07 00:06:38;;;;;;;39.88;20.95;;;8.00;99.90;;;;;;5078384;28;20793;-78
2023/01/07 00:09:05;;;;;;;45.22;22.55;;;8.10;99.90;;;;;;5094801;28;20914;-78
2023/01/07 00:11:34;;;;;;;43.90;22.52;;;8.10;99.90;;;;;;5096667;28;20496;-78
2023/01/07 00:14:00;;;;;;;45.70;23.45;;;8.20;99.90;;;;;;5089914;28;20424;-79
2023/01/07 00:16:29;;;;;;;47.92;23.52;;;8.20;99.90;;;;;;5090169;28;20418;-78
2023/01/07 00:18:56;;;;;;;45.42;23.38;;;8.20;99.90;;;;;;5090441;28;20390;-78
2023/01/07 00:21:23;;;;;;;44.75;23.13;;;8.30;99.90;;;;;;5091827;28;20418;-78
2023/01/07 00:23:56;;;;;;;50.27;24.47;;;8.40;99.90;;;;;;5078774;28;20402;-78
2023/01/07 00:26:23;;;;;;;47.55;24.02;;;8.40;99.90;;;;;;5088705;28;20395;-78
2023/01/07 00:28:51;;;;;;;48.00;24.50;;;8.50;99.90;;;;;;5089451;28;20403;-78
2023/01/07 00:31:19;;;;;;;46.95;25.05;;;8.50;99.90;;;;;;5089724;28;20402;-79
2023/01/07 00:34:28;;;;;;;48.55;25.92;;;8.50;99.90;;;;;;5090191;28;20398;-78
2023/01/07 00:36:44;;;;;;;51.15;25.20;;;8.60;99.90;;;;;;5076586;28;20531;-79
2023/01/07 00:39:19;;;;;;;51.72;25.60;;;8.60;99.90;;;;;;5089146;28;20463;-79
2023/01/07 00:44:30;;;;;;;56.28;26.60;;;8.70;99.90;;;;;;5088755;28;20406;-78
2023/01/07 00:46:57;;;;;;;50.33;25.20;;;8.80;99.90;;;;;;5089786;28;20425;-78
2023/01/07 00:49:25;;;;;;;54.63;26.20;;;8.90;99.90;;;;;;5089123;28;20406;-79
2023/01/07 00:51:51;;;;;;;49.08;24.65;;;8.90;99.90;;;;;;5071722;28;20883;-79
2023/01/07 00:54:17;;;;;;;50.35;25.83;;;8.90;99.90;;;;;;5089507;28;21139;-78
2023/01/07 00:56:42;;;;;;;46.88;24.88;;;9.00;99.90;;;;;;5090080;28;21058;-79
2023/01/07 00:59:08;;;;;;;47.25;24.95;;;9.00;99.90;;;;;;5090240;28;20417;-79
2023/01/07 01:01:34;;;;;;;44.73;24.37;;;9.10;99.90;;;;;;5089610;28;20430;-79
2023/01/07 01:03:59;;;;;;;44.40;23.80;;;9.10;99.90;;;;;;5085677;28;20417;-78
2023/01/07 01:06:25;;;;;;;42.47;23.70;;;9.20;99.90;;;;;;5090710;28;20406;-79
2023/01/07 01:08:50;;;;;;;43.95;23.45;;;9.20;99.90;;;;;;5072296;28;20880;-79
2023/01/07 01:11:16;;;;;;;44.43;23.60;;;9.30;99.90;;;;;;5089788;28;20410;-78
2023/01/07 01:13:43;;;;;;;46.17;24.10;;;9.30;99.90;;;;;;5088504;28;20448;-79
2023/01/07 01:16:12;;;;;;;47.78;24.60;;;9.30;99.90;;;;;;5091115;28;20527;-79
2023/01/07 01:18:38;;;;;;;49.25;23.55;;;9.30;99.90;;;;;;5071316;28;20416;-79
2023/01/07 01:21:05;;;;;;;47.67;22.77;;;9.30;99.90;;;;;;5091646;28;20414;-79
2023/01/07 01:23:31;;;;;;;49.65;23.67;;;9.30;99.90;;;;;;5087679;28;20780;-79
2023/01/07 01:26:12;;;;;;;46.28;23.35;;;9.40;99.90;;;;;;5092850;28;20406;-79
2023/01/07 01:28:37;;;;;;;47.63;22.63;;;9.40;99.90;;;;;;5093199;28;20441;-79
2023/01/07 01:31:03;;;;;;;47.08;22.48;;;9.40;99.90;;;;;;5089969;28;20442;-79
2023/01/07 01:33:29;;;;;;;47.83;23.30;;;9.40;99.90;;;;;;5092416;28;20765;-78
2023/01/07 01:35:55;;;;;;;47.40;22.60;;;9.40;99.90;;;;;;5090570;28;20417;-79
2023/01/07 01:38:21;;;;;;;52.33;22.57;;;9.40;99.90;;;;;;5091226;28;20406;-79
2023/01/07 01:40:46;;;;;;;48.85;22.77;;;9.50;99.90;;;;;;5081302;28;20510;-79
2023/01/07 01:43:31;;;;;;;51.73;22.70;;;9.50;99.90;;;;;;5078423;28;20404;-79
2023/01/07 01:46:12;;;;;;;47.90;22.13;;;9.50;99.90;;;;;;5089456;28;20875;-79
2023/01/07 01:48:42;;;;;;;50.13;22.10;;;9.50;99.90;;;;;;5090418;28;20403;-78
2023/01/07 01:51:09;;;;;;;48.97;22.60;;;9.60;99.90;;;;;;5089432;28;20484;-78
2023/01/07 01:53:36;;;;;;;49.20;22.40;;;9.60;99.90;;;;;;5086950;28;20488;-78
2023/01/07 01:56:09;;;;;;;48.58;22.00;;;9.60;99.90;;;;;;5086992;28;20474;-78
2023/01/07 01:58:48;;;;;;;46.42;21.50;;;9.60;99.90;;;;;;5086864;28;20402;-78
2023/01/07 02:01:14;;;;;;;47.65;21.95;;;9.60;99.90;;;;;;5086902;28;20986;-78
2023/01/07 02:03:40;;;;;;;46.13;21.42;;;9.70;99.90;;;;;;5086901;28;20551;-79
2023/01/07 02:06:13;;;;;;;47.45;21.98;;;9.70;99.90;;;;;;5070279;28;20398;-79
2023/01/07 02:08:38;;;;;;;46.17;20.95;;;9.70;99.90;;;;;;5087596;28;20426;-79
2023/01/07 02:11:13;;;;;;;44.57;21.83;;;9.80;99.90;;;;;;5091640;28;20436;-79
2023/01/07 02:14:06;;;;;;;46.15;21.27;;;9.80;99.90;;;;;;5086757;28;20776;-79
2023/01/07 02:16:32;;;;;;;44.90;21.20;;;9.80;99.90;;;;;;5090703;28;21014;-79
2023/01/07 02:19:42;;;;;;;48.17;22.20;;;9.80;99.90;;;;;;5100073;28;20485;-79
2023/01/07 02:22:19;;;;;;;43.95;21.45;;;9.90;99.90;;;;;;5066974;28;20456;-79
2023/01/07 02:25:02;;;;;;;46.38;21.77;;;9.90;99.90;;;;;;5090259;28;20408;-79
2023/01/07 02:27:55;;;;;;;43.58;21.10;;;9.90;99.90;;;;;;5088196;28;20444;-79
2023/01/07 02:30:45;;;;;;;42.13;20.85;;;9.90;99.90;;;;;;5078616;28;20414;-78
2023/01/07 02:33:46;;;;;;;44.03;20.92;;;10.00;99.90;;;;;;5088133;28;20422;-79
2023/01/07 02:36:30;;;;;;;45.10;21.05;;;10.00;99.90;;;;;;5090530;28;20584;-79
2023/01/07 02:39:19;;;;;;;47.55;20.95;;;10.00;99.90;;;;;;5089897;28;20418;-79
2023/01/07 02:42:02;;;;;;;45.70;20.33;;;10.00;99.90;;;;;;5089580;28;20523;-79
2023/01/07 02:44:58;;;;;;;42.95;20.80;;;10.00;99.90;;;;;;5092900;28;20766;-79
2023/01/07 02:47:40;;;;;;;44.50;21.35;;;10.10;99.90;;;;;;5088921;28;20436;-79
2023/01/07 02:50:06;;;;;;;44.08;20.95;;;10.00;99.90;;;;;;5086048;28;20418;-79
2023/01/07 02:52:33;;;;;;;45.17;22.33;;;10.00;99.90;;;;;;5085134;28;20878;-78
2023/01/07 02:55:09;;;;;;;45.55;22.00;;;10.10;99.90;;;;;;5085671;28;20835;-78
2023/01/07 02:57:53;;;;;;;44.07;21.37;;;10.10;99.90;;;;;;5086998;28;20406;-78
2023/01/07 03:00:32;;;;;;;44.00;21.45;;;10.10;99.90;;;;;;5087181;28;20767;-78
2023/01/07 03:03:12;;;;;;;47.33;21.47;;;10.10;99.90;;;;;;5086056;28;20425;-78
2023/01/07 03:05:43;;;;;;;47.40;22.60;;;10.10;99.90;;;;;;5098261;28;20414;-79
2023/01/07 03:08:21;;;;;;;43.30;22.23;;;10.10;99.90;;;;;;5086273;28;20416;-79
2023/01/07 03:10:55;;;;;;;41.53;21.48;;;10.10;99.90;;;;;;5087993;28;20412;-79
2023/01/07 03:13:28;;;;;;;42.17;22.57;;;10.20;99.90;;;;;;5094710;28;20413;-79
2023/01/07 03:16:03;;;;;;;43.90;22.90;;;10.20;99.90;;;;;;5093858;28;20409;-79
2023/01/07 03:18:32;;;;;;;46.27;23.33;;;10.20;99.90;;;;;;5103879;28;20408;-78
2023/01/07 03:21:02;;;;;;;46.88;23.60;;;10.20;99.90;;;;;;5088569;28;20500;-79
2023/01/07 03:23:29;;;;;;;41.95;23.23;;;10.20;99.90;;;;;;5104182;28;20432;-79
2023/01/07 03:25:59;;;;;;;42.25;22.63;;;10.30;99.90;;;;;;5104761;28;20408;-78
2023/01/07 03:28:28;;;;;;;41.83;22.85;;;10.30;99.90;;;;;;5081220;28;20398;-78
2023/01/07 03:30:56;;;;;;;37.35;21.77;;;10.30;99.90;;;;;;5104762;28;20933;-78
2023/01/07 03:33:36;;;;;;;37.08;22.52;;;10.20;99.90;;;;;;5085865;28;20398;-79
2023/01/07 03:36:05;;;;;;;37.33;22.58;;;10.30;99.90;;;;;;5086067;28;20457;-79
2023/01/07 03:38:32;;;;;;;39.07;23.33;;;10.30;99.90;;;;;;5086256;28;20416;-79
2023/01/07 03:40:58;;;;;;;34.17;21.77;;;10.30;99.90;;;;;;5086436;28;20851;-79
2023/01/07 03:43:24;;;;;;;34.73;22.27;;;10.30;99.90;;;;;;5069382;28;20489;-79
2023/01/07 03:45:51;;;;;;;34.25;22.25;;;10.40;99.90;;;;;;5085629;28;20413;-78
2023/01/07 03:48:17;;;;;;;35.47;23.25;;;10.30;99.90;;;;;;5095395;28;20396;-79
2023/01/07 03:50:42;;;;;;;34.67;22.30;;;10.40;99.90;;;;;;5073417;28;20455;-78
2023/01/07 03:53:08;;;;;;;31.90;22.47;;;10.30;99.90;;;;;;5087534;28;20406;-78
2023/01/07 03:55:34;;;;;;;31.33;21.63;;;10.40;99.90;;;;;;5090489;28;21102;-79
2023/01/07 03:58:00;;;;;;;34.57;22.43;;;10.40;99.90;;;;;;5088684;28;20497;-79
2023/01/07 04:00:25;;;;;;;29.60;21.88;;;10.40;99.90;;;;;;5090738;28;20404;-79
2023/01/07 04:02:51;;;;;;;30.52;21.85;;;10.40;99.90;;;;;;5088209;28;20426;-79
2023/01/07 04:05:17;;;;;;;31.13;21.97;;;10.40;99.90;;;;;;5090796;28;20404;-79
2023/01/07 04:07:42;;;;;;;32.13;22.13;;;10.40;99.90;;;;;;5090765;28;20405;-79
2023/01/07 04:10:09;;;;;;;31.30;21.83;;;10.40;99.90;;;;;;5089506;28;20398;-79
2023/01/07 04:12:34;;;;;;;32.65;21.45;;;10.40;99.90;;;;;;5089470;28;20587;-79
2023/01/07 04:15:00;;;;;;;29.13;21.20;;;10.40;99.90;;;;;;5089167;28;20492;-78
2023/01/07 04:17:25;;;;;;;29.40;21.02;;;10.40;99.90;;;;;;5089714;28;20437;-79
2023/01/07 04:19:51;;;;;;;28.40;21.73;;;10.40;99.90;;;;;;5091602;28;20981;-79
2023/01/07 04:22:17;;;;;;;27.55;20.65;;;10.40;99.90;;;;;;5092045;28;20854;-79
2023/01/07 04:24:42;;;;;;;26.70;20.23;;;10.40;99.90;;;;;;5091866;28;20751;-79
2023/01/07 04:27:09;;;;;;;26.42;21.17;;;10.40;99.90;;;;;;5091990;28;20402;-78
2023/01/07 04:29:34;;;;;;;26.15;20.45;;;10.40;99.90;;;;;;5077727;28;20786;-79
2023/01/07 04:32:00;;;;;;;27.02;20.77;;;10.40;99.90;;;;;;5092422;28;20402;-79
2023/01/07 04:34:26;;;;;;;26.17;20.47;;;10.40;99.90;;;;;;5094773;28;20400;-79
2023/01/07 04:36:51;;;;;;;27.02;20.70;;;10.40;99.90;;;;;;5092495;28;20406;-79
2023/01/07 04:39:17;;;;;;;25.77;20.57;;;10.50;99.90;;;;;;5094683;28;20435;-79
2023/01/07 04:41:43;;;;;;;26.30;19.90;;;10.40;99.90;;;;;;5092668;28;20426;-79
2023/01/07 04:44:09;;;;;;;25.45;19.48;;;10.40;99.90;;;;;;5094773;28;20539;-79
2023/01/07 04:46:35;;;;;;;25.63;20.00;;;10.40;99.90;;;;;;5089061;28;20477;-79
2023/01/07 04:49:00;;;;;;;25.63;19.73;;;10.40;99.90;;;;;;5097352;28;21318;-78
2023/01/07 04:51:26;;;;;;;24.15;19.23;;;10.40;99.90;;;;;;5091923;28;20512;-79
2023/01/07 04:53:51;;;;;;;21.97;18.40;;;10.50;99.90;;;;;;5089449;28;20409;-79
2023/01/07 04:56:17;;;;;;;26.77;19.80;;;10.50;99.90;;;;;;5071783;28;20863;-79
2023/01/07 04:58:43;;;;;;;23.33;18.77;;;10.50;99.90;;;;;;5097522;28;20438;-79
2023/01/07 05:01:09;;;;;;;24.00;18.47;;;10.50;99.90;;;;;;5099980;28;20458;-78
2023/01/07 05:03:35;;;;;;;22.45;17.70;;;10.50;99.90;;;;;;5080618;28;20413;-78
2023/01/07 05:06:01;;;;;;;23.77;18.13;;;10.50;99.90;;;;;;5092809;28;20911;-77
2023/01/07 05:08:27;;;;;;;23.00;17.73;;;10.50;99.90;;;;;;5080907;28;20449;-78
2023/01/07 05:10:53;;;;;;;23.90;18.20;;;10.50;99.90;;;;;;5092774;28;20430;-79
2023/01/07 05:13:21;;;;;;;23.30;18.25;;;10.50;99.90;;;;;;5087882;28;20433;-79
2023/01/07 05:15:47;;;;;;;22.25;17.85;;;10.50;99.90;;;;;;5095248;28;20469;-79
2023/01/07 05:18:13;;;;;;;23.67;18.42;;;10.50;99.90;;;;;;5095039;28;20402;-79
2023/01/07 05:20:39;;;;;;;22.33;18.00;;;10.50;99.90;;;;;;5095814;28;20453;-79
2023/01/07 05:23:05;;;;;;;24.23;18.20;;;10.50;99.90;;;;;;5087732;28;20510;-79
2023/01/07 05:25:32;;;;;;;23.43;17.27;;;10.50;99.90;;;;;;5095494;28;20404;-79
2023/01/07 05:27:58;;;;;;;24.38;17.70;;;10.50;99.90;;;;;;5095516;28;20402;-79
2023/01/07 05:30:24;;;;;;;22.80;17.13;;;10.50;99.90;;;;;;5095712;28;20449;-79
2023/01/07 05:32:49;;;;;;;20.90;16.60;;;10.50;99.90;;;;;;5087781;28;20491;-79
2023/01/07 05:35:15;;;;;;;21.73;16.70;;;10.50;99.90;;;;;;5087190;28;20417;-78
2023/01/07 05:37:41;;;;;;;20.33;16.45;;;10.50;99.90;;;;;;5087996;28;20513;-79
2023/01/07 05:40:07;;;;;;;21.13;15.53;;;10.40;99.90;;;;;;5087170;28;20451;-79
2023/01/07 05:42:32;;;;;;;20.40;15.70;;;10.50;99.90;;;;;;5088583;28;20815;-79
2023/01/07 05:44:58;;;;;;;21.10;16.13;;;10.50;99.90;;;;;;5088089;28;20425;-79
2023/01/07 05:47:24;;;;;;;19.80;14.93;;;10.40;99.90;;;;;;5088387;28;20410;-79
2023/01/07 05:49:49;;;;;;;18.23;15.30;;;10.40;99.90;;;;;;5090204;28;20410;-79
2023/01/07 05:52:15;;;;;;;18.52;14.77;;;10.50;99.90;;;;;;5092772;28;20408;-79
2023/01/07 05:54:41;;;;;;;18.20;14.80;;;10.50;99.90;;;;;;5092300;28;20438;-79
2023/01/07 05:57:06;;;;;;;18.10;14.65;;;10.40;99.90;;;;;;5086848;28;20406;-80
2023/01/07 05:59:33;;;;;;;17.73;14.10;;;10.40;99.90;;;;;;5086382;28;20402;-79
2023/01/07 06:02:00;;;;;;;17.27;13.95;;;10.40;99.90;;;;;;5097838;28;20757;-79
2023/01/07 06:04:26;;;;;;;17.83;14.10;;;10.40;99.90;;;;;;5101700;28;20408;-79
2023/01/07 06:06:51;;;;;;;17.10;13.33;;;10.40;99.90;;;;;;5088660;28;20409;-79
2023/01/07 06:09:17;;;;;;;16.67;13.27;;;10.40;99.90;;;;;;5103393;28;20404;-79
2023/01/07 06:11:43;;;;;;;18.00;13.60;;;10.40;99.90;;;;;;5099749;28;20406;-79
2023/01/07 06:14:09;;;;;;;15.63;13.00;;;10.40;99.90;;;;;;5106833;28;20932;-79
2023/01/07 06:16:34;;;;;;;17.93;13.40;;;10.50;99.90;;;;;;5103566;28;20420;-79
2023/01/07 06:19:00;;;;;;;16.13;12.43;;;10.40;99.90;;;;;;5104946;28;20408;-79
2023/01/07 06:21:26;;;;;;;17.10;12.87;;;10.40;99.90;;;;;;5104340;28;20418;-79
2023/01/07 06:23:51;;;;;;;17.55;12.93;;;10.40;99.90;;;;;;5097170;28;20402;-79
2023/01/07 06:26:17;;;;;;;15.73;12.13;;;10.40;99.90;;;;;;5087303;28;20779;-79
2023/01/07 06:28:43;;;;;;;16.77;12.37;;;10.40;99.90;;;;;;5088022;28;20409;-79
2023/01/07 06:31:10;;;;;;;15.85;12.30;;;10.40;99.90;;;;;;5086921;28;20990;-79
2023/01/07 06:33:36;;;;;;;16.70;12.83;;;10.40;99.90;;;;;;5086979;28;20414;-79
2023/01/07 06:36:03;;;;;;;18.75;12.32;;;10.40;99.90;;;;;;5086951;28;20904;-79
2023/01/07 06:38:29;;;;;;;16.25;11.90;;;10.40;99.90;;;;;;5086518;28;20907;-79
2023/01/07 06:40:55;;;;;;;15.30;11.40;;;10.40;99.90;;;;;;5089173;28;20401;-78
2023/01/07 06:43:20;;;;;;;14.63;11.82;;;10.40;99.90;;;;;;5087693;28;21133;-79
2023/01/07 06:45:46;;;;;;;15.35;11.82;;;10.30;99.90;;;;;;5087987;28;20443;-79
2023/01/07 06:48:11;;;;;;;13.47;11.10;;;10.30;99.90;;;;;;5086271;28;20497;-78
2023/01/07 06:50:37;;;;;;;15.05;11.02;;;10.30;99.90;;;;;;5086319;28;20475;-79
2023/01/07 06:53:03;;;;;;;16.20;11.27;;;10.30;99.90;;;;;;5096260;28;20519;-78
2023/01/07 06:55:29;;;;;;;14.05;10.70;;;10.30;99.90;;;;;;5105949;28;20961;-79
2023/01/07 06:57:54;;;;;;;14.68;11.25;;;10.30;99.90;;;;;;5107232;28;20404;-79
2023/01/07 07:00:20;;;;;;;13.73;10.53;;;10.30;99.90;;;;;;5104891;28;20429;-78
2023/01/07 07:02:46;;;;;;;13.25;10.52;;;10.30;99.90;;;;;;5097940;28;20783;-79
2023/01/07 07:05:11;;;;;;;15.30;10.83;;;10.20;99.90;;;;;;5099425;28;20421;-79
2023/01/07 07:07:37;;;;;;;13.75;10.48;;;10.30;99.90;;;;;;5086998;28;20405;-78
2023/01/07 07:10:06;;;;;;;13.90;10.70;;;10.30;99.90;;;;;;5088623;28;20441;-79
2023/01/07 07:12:33;;;;;;;14.30;10.67;;;10.30;99.90;;;;;;5086160;28;20433;-78
2023/01/07 07:14:58;;;;;;;12.70;10.25;;;10.20;99.90;;;;;;5087434;28;20398;-79
2023/01/07 07:17:24;;;;;;;13.43;10.10;;;10.20;99.90;;;;;;5088154;28;20926;-79
2023/01/07 07:19:49;;;;;;;17.53;10.30;;;10.20;99.90;;;;;;5080670;28;20510;-79
2023/01/07 07:22:15;;;;;;;13.48;10.25;;;10.20;99.90;;;;;;5086297;28;20432;-79
2023/01/07 07:24:41;;;;;;;11.93;9.93;;;10.20;99.90;;;;;;5068636;28;21057;-79
2023/01/07 07:27:06;;;;;;;13.30;10.27;;;10.20;99.90;;;;;;5086299;28;20409;-79
2023/01/07 07:29:32;;;;;;;11.57;9.43;;;10.20;99.90;;;;;;5085825;28;20937;-78
2023/01/07 07:31:57;;;;;;;12.95;9.90;;;10.20;99.90;;;;;;5087415;28;20955;-79
2023/01/07 07:34:23;;;;;;;14.53;10.37;;;10.10;99.90;;;;;;5087947;28;20435;-78
2023/01/07 07:36:49;;;;;;;13.35;10.10;;;10.10;99.90;;;;;;5088295;28;20822;-79
2023/01/07 07:39:14;;;;;;;14.73;9.77;;;10.10;99.90;;;;;;5087560;28;20409;-79
2023/01/07 07:41:40;;;;;;;12.10;9.52;;;10.10;99.90;;;;;;5090900;28;20453;-79
2023/01/07 07:44:06;;;;;;;12.93;9.47;;;10.10;99.90;;;;;;5090982;28;20409;-78
2023/01/07 07:46:31;;;;;;;11.93;8.95;;;10.10;99.90;;;;;;5087339;28;20994;-79
2023/01/07 07:48:57;;;;;;;12.32;9.00;;;10.20;99.90;;;;;;5088751;28;20440;-78
2023/01/07 07:51:23;;;;;;;11.17;8.53;;;10.20;99.90;;;;;;5083215;28;20483;-79
2023/01/07 07:53:48;;;;;;;10.90;8.70;;;10.20;99.90;;;;;;5089478;28;20398;-79
2023/01/07 07:56:14;;;;;;;13.53;8.97;;;10.20;99.90;;;;;;5079870;28;20421;-79
2023/01/07 07:58:41;;;;;;;15.40;9.38;;;10.20;99.90;;;;;;5067498;28;21058;-78
2023/01/07 08:01:07;;;;;;;11.88;8.95;;;10.10;99.90;;;;;;5087687;28;20407;-79
2023/01/07 08:03:33;;;;;;;13.10;8.95;;;10.20;99.90;;;;;;5085696;28;20402;-79
2023/01/07 08:05:59;;;;;;;11.20;8.70;;;10.20;99.90;;;;;;5077286;28;20981;-78
2023/01/07 08:08:24;;;;;;;10.50;8.53;;;10.20;99.90;;;;;;5078745;28;20405;-79
2023/01/07 08:10:50;;;;;;;10.40;8.23;;;10.20;99.90;;;;;;5072247;28;20403;-79
2023/01/07 08:13:15;;;;;;;12.57;8.50;;;10.20;99.90;;;;;;5086467;28;20476;-79
2023/01/07 08:15:41;;;;;;;9.48;8.02;;;10.20;99.90;;;;;;5078493;28;20419;-79
2023/01/07 08:18:08;;;;;;;10.97;7.87;;;10.20;99.90;;;;;;5078908;28;20432;-79
2023/01/07 08:20:35;;;;;;;11.60;8.30;;;10.20;99.90;;;;;;5095493;28;20480;-79
2023/01/07 08:23:03;;;;;;;9.68;8.10;;;10.20;99.90;;;;;;5094972;28;20550;-79
2023/01/07 08:25:31;;;;;;;10.67;8.00;;;10.20;99.90;;;;;;5095861;28;20425;-79
2023/01/07 08:27:57;;;;;;;10.98;7.97;;;10.10;99.90;;;;;;5089415;28;20500;-79
2023/01/07 08:30:23;;;;;;;9.70;7.57;;;10.10;99.90;;;;;;5104125;28;20404;-78
2023/01/07 08:32:49;;;;;;;10.75;6.95;;;10.10;99.90;;;;;;5094102;28;21330;-79
2023/01/07 08:35:15;;;;;;;10.32;7.40;;;10.10;99.90;;;;;;5095334;28;20404;-79
2023/01/07 08:37:41;;;;;;;11.30;7.10;;;10.10;99.90;;;;;;5088717;28;20788;-79
2023/01/07 08:40:07;;;;;;;10.82;7.10;;;10.10;99.90;;;;;;5088398;28;20406;-79
2023/01/07 08:42:33;;;;;;;8.70;6.93;;;10.10;99.90;;;;;;5098550;28;20485;-79
2023/01/07 08:44:58;;;;;;;8.53;6.23;;;10.10;99.90;;;;;;5095397;28;20830;-79
2023/01/07 08:47:26;;;;;;;8.03;6.40;;;10.10;99.90;;;;;;5098770;28;20405;-79
2023/01/07 08:49:56;;;;;;;10.98;6.70;;;10.20;99.90;;;;;;5069419;28;20425;-79
2023/01/07 08:52:23;;;;;;;9.18;6.50;;;10.20;99.90;;;;;;5090064;28;20970;-79
2023/01/07 08:54:49;;;;;;;9.13;5.97;;;10.20;99.90;;;;;;5091802;28;20410;-78
2023/01/07 08:57:16;;;;;;;8.52;5.80;;;10.20;99.90;;;;;;5094358;28;20404;-79
2023/01/07 08:59:42;;;;;;;8.57;5.65;;;10.20;99.90;;;;;;5087151;28;20406;-79
2023/01/07 09:02:16;;;;;;;7.40;5.53;;;10.20;99.90;;;;;;5083747;28;20483;-79
2023/01/07 09:04:43;;;;;;;7.82;5.80;;;10.30;99.90;;;;;;5080405;28;20472;-80
2023/01/07 09:07:09;;;;;;;9.18;5.72;;;10.30;99.90;;;;;;5086413;28;20408;-80
2023/01/07 09:09:35;;;;;;;7.78;5.20;;;10.30;99.90;;;;;;5072859;28;20408;-79
2023/01/07 09:12:02;;;;;;;6.63;5.20;;;10.40;99.90;;;;;;5078539;28;20448;-78
2023/01/07 09:14:27;;;;;;;8.05;4.90;;;10.40;99.90;;;;;;5079953;28;20869;-79
2023/01/07 09:16:53;;;;;;;7.72;5.20;;;10.40;99.90;;;;;;5086362;28;20457;-79
2023/01/07 09:19:19;;;;;;;5.65;4.80;;;10.40;99.90;;;;;;5077776;28;20417;-79
2023/01/07 09:21:44;;;;;;;5.93;4.63;;;10.40;99.90;;;;;;5079918;28;20428;-79
2023/01/07 09:24:10;;;;;;;7.90;4.90;;;10.40;99.90;;;;;;5078222;28;20418;-79
2023/01/07 09:26:36;;;;;;;7.33;4.90;;;10.40;99.90;;;;;;5086433;28;20925;-79
2023/01/07 09:29:01;;;;;;;7.22;4.90;;;10.40;99.90;;;;;;5077209;28;20402;-79
2023/01/07 09:31:27;;;;;;;6.10;4.63;;;10.40;99.90;;;;;;5074708;28;21003;-79
2023/01/07 09:33:52;;;;;;;7.38;4.93;;;10.40;99.90;;;;;;5085362;28;20456;-76
2023/01/07 09:36:18;;;;;;;7.47;5.10;;;10.40;99.90;;;;;;5096287;28;20471;-78
2023/01/07 09:38:43;;;;;;;6.07;5.03;;;10.40;99.90;;;;;;5091103;28;20795;-77
2023/01/07 09:41:42;;;;;;;6.87;4.83;;;10.40;99.90;;;;;;5091281;28;20414;-77
2023/01/07 09:44:49;;;;;;;7.43;4.82;;;10.40;99.90;;;;;;5097029;28;20482;-78
2023/01/07 09:47:20;;;;;;;7.65;5.13;;;10.40;99.90;;;;;;5089943;28;20475;-78
2023/01/07 09:49:49;;;;;;;6.55;4.40;;;10.40;99.90;;;;;;5084444;28;21208;-78
2023/01/07 09:52:21;;;;;;;5.90;4.07;;;10.40;99.90;;;;;;5084863;28;20433;-78
2023/01/07 09:54:52;;;;;;;4.78;3.90;;;10.40;99.90;;;;;;5085324;28;20429;-78
2023/01/07 09:57:18;;;;;;;5.60;3.92;;;10.40;99.90;;;;;;5087454;28;20499;-78
2023/01/07 09:59:44;;;;;;;6.25;3.95;;;10.40;99.90;;;;;;5089704;28;20501;-78
2023/01/07 10:02:43;;;;;;;5.85;3.72;;;10.40;99.90;;;;;;5091231;28;20458;-78
2023/01/07 10:05:24;;;;;;;7.03;3.70;;;10.40;99.90;;;;;;5084357;28;20421;-78
2023/01/07 10:08:09;;;;;;;6.72;4.07;;;10.40;99.90;;;;;;5085818;28;20947;-78
2023/01/07 10:10:51;;;;;;;5.38;3.35;;;10.50;99.90;;;;;;5093205;28;20458;-78
2023/01/07 10:13:36;;;;;;;6.15;3.58;;;10.40;99.90;;;;;;5088622;28;20567;-78
2023/01/07 10:16:43;;;;;;;5.82;3.47;;;10.50;99.90;;;;;;5078309;28;20495;-77
2023/01/07 10:19:19;;;;;;;7.78;3.55;;;10.50;99.90;;;;;;5089700;28;20513;-78
2023/01/07 10:21:56;;;;;;;4.22;2.90;;;10.50;99.90;;;;;;5087593;28;20474;-78
2023/01/07 10:24:30;;;;;;;5.53;2.88;;;10.50;99.90;;;;;;5090615;28;20814;-78
2023/01/07 10:27:03;;;;;;;5.18;3.10;;;10.50;99.90;;;;;;5085169;28;20435;-78
2023/01/07 10:29:38;;;;;;;4.07;3.17;;;10.60;99.90;;;;;;5090360;28;20496;-78
2023/01/07 10:32:19;;;;;;;5.28;2.55;;;10.60;99.90;;;;;;5087195;28;20430;-78
2023/01/07 10:34:48;;;;;;;4.28;2.80;;;10.50;99.90;;;;;;5092944;28;20424;-78
2023/01/07 10:37:36;;;;;;;5.80;2.80;;;10.60;99.90;;;;;;5089516;28;20457;-78
2023/01/07 10:40:04;;;;;;;5.32;2.80;;;10.60;99.90;;;;;;5083876;28;21128;-78
2023/01/07 10:43:01;;;;;;;4.65;2.40;;;10.60;99.90;;;;;;5091379;28;20445;-78
2023/01/07 10:45:35;;;;;;;4.55;2.80;;;10.60;99.90;;;;;;5085708;28;20413;-78
2023/01/07 10:48:20;;;;;;;3.67;2.30;;;10.60;99.90;;;;;;5085115;28;20492;-78
2023/01/07 10:50:56;;;;;;;5.38;2.35;;;10.70;99.90;;;;;;5085018;28;20479;-78
2023/01/07 10:53:30;;;;;;;4.85;2.50;;;10.80;99.90;;;;;;5085673;28;20465;-78
2023/01/07 10:56:14;;;;;;;3.95;2.00;;;10.80;99.90;;;;;;5068530;28;20426;-78
2023/01/07 10:58:43;;;;;;;3.90;1.83;;;10.90;99.90;;;;;;5085175;28;20436;-78
2023/01/07 11:01:24;;;;;;;4.22;2.17;;;10.80;99.90;;;;;;5085731;28;20520;-79
2023/01/07 11:03:52;;;;;;;3.45;2.00;;;10.90;99.90;;;;;;5085412;28;20911;-78
2023/01/07 11:06:26;;;;;;;4.22;2.10;;;10.80;99.90;;;;;;5085109;28;20425;-78
2023/01/07 11:08:52;;;;;;;2.65;1.80;;;10.80;99.90;;;;;;5069007;28;20398;-78
2023/01/07 11:11:21;;;;;;;2.60;1.70;;;10.80;99.90;;;;;;5085073;28;20445;-78
2023/01/07 11:13:59;;;;;;;3.15;1.75;;;10.80;99.90;;;;;;5085883;28;20756;-78
2023/01/07 11:16:42;;;;;;;4.10;1.80;;;10.80;99.90;;;;;;5085337;28;20421;-78
2023/01/07 11:19:10;;;;;;;5.87;2.07;;;10.80;99.90;;;;;;5089771;28;20497;-79
2023/01/07 11:21:37;;;;;;;3.15;1.90;;;10.70;99.90;;;;;;5088620;28;20452;-79
2023/01/07 11:24:30;;;;;;;3.50;1.77;;;10.80;99.90;;;;;;5091633;28;20402;-78
2023/01/07 11:27:11;;;;;;;3.63;1.63;;;10.80;99.90;;;;;;5078036;28;20430;-78
2023/01/07 11:30:12;;;;;;;3.70;1.50;;;10.80;99.90;;;;;;5092322;28;20910;-76
2023/01/07 11:32:39;;;;;;;2.90;1.73;;;10.80;99.90;;;;;;5071066;28;20437;-76
2023/01/07 11:35:14;;;;;;;3.43;1.60;;;10.90;99.90;;;;;;5091556;28;20414;-78
2023/01/07 11:37:42;;;;;;;2.75;1.63;;;10.90;99.90;;;;;;5088491;28;20993;-77
2023/01/07 11:40:13;;;;;;;4.03;1.60;;;10.90;99.90;;;;;;5092538;28;20402;-78
2023/01/07 11:43:28;;;;;;;3.63;1.40;;;10.90;99.90;;;;;;5092078;28;20428;-78
2023/01/07 11:45:57;;;;;;;2.17;1.20;;;11.00;99.90;;;;;;5071929;28;20500;-78
2023/01/07 11:48:26;;;;;;;3.20;1.30;;;11.00;99.90;;;;;;5090739;28;20425;-78
2023/01/07 11:50:52;;;;;;;3.28;1.33;;;11.00;99.90;;;;;;5092061;28;20404;-79
2023/01/07 11:53:17;;;;;;;3.20;1.20;;;11.10;99.90;;;;;;5086404;28;20449;-78
2023/01/07 11:55:57;;;;;;;3.20;1.42;;;11.10;99.90;;;;;;5090438;28;20406;-78
2023/01/07 11:58:24;;;;;;;3.08;1.20;;;11.10;99.90;;;;;;5070739;28;20513;-78
2023/01/07 12:01:20;;;;;;;2.38;1.30;;;11.10;99.90;;;;;;5090116;28;20500;-78
2023/01/07 12:03:55;;;;;;;2.00;1.10;;;11.10;99.90;;;;;;5069157;28;20432;-78
2023/01/07 12:06:31;;;;;;;3.65;1.10;;;11.10;99.90;;;;;;5092825;28;20410;-78
2023/01/07 12:08:57;;;;;;;3.50;1.20;;;11.10;99.90;;;;;;5090926;28;20839;-78
2023/01/07 12:11:30;;;;;;;3.33;1.20;;;11.20;99.90;;;;;;5088720;28;20465;-78
2023/01/07 12:13:59;;;;;;;2.25;1.00;;;11.10;99.90;;;;;;5092091;28;20399;-77
2023/01/07 12:16:27;;;;;;;1.95;1.00;;;11.20;99.90;;;;;;5094712;28;20946;-78
2023/01/07 12:18:53;;;;;;;3.40;0.97;;;11.10;99.90;;;;;;5090939;28;20449;-78
2023/01/07 12:21:45;;;;;;;4.03;1.03;;;11.10;99.90;;;;;;5092777;28;21199;-78
2023/01/07 12:24:32;;;;;;;2.07;0.90;;;11.10;99.90;;;;;;5082168;28;20405;-78
2023/01/07 12:27:07;;;;;;;1.98;0.82;;;11.10;99.90;;;;;;5088515;28;20422;-78
2023/01/07 12:29:41;;;;;;;2.35;1.20;;;11.10;99.90;;;;;;5091224;28;20429;-79
2023/01/07 12:32:37;;;;;;;1.77;1.00;;;11.10;99.90;;;;;;5091441;28;21460;-79
2023/01/07 12:35:09;;;;;;;2.42;0.90;;;11.10;99.90;;;;;;5087161;28;20892;-79
2023/01/07 12:37:38;;;;;;;2.50;1.17;;;11.00;99.90;;;;;;5093516;28;20418;-79
2023/01/07 12:40:12;;;;;;;1.93;0.97;;;11.10;99.90;;;;;;5094670;28;20413;-78
2023/01/07 12:42:41;;;;;;;2.58;1.00;;;11.10;99.90;;;;;;5094520;28;21005;-79
2023/01/07 12:45:43;;;;;;;2.13;1.10;;;11.20;99.90;;;;;;5093491;28;20461;-79
2023/01/07 12:48:20;;;;;;;2.00;0.82;;;11.20;99.90;;;;;;5052872;28;20874;-79
2023/01/07 12:50:50;;;;;;;1.73;0.90;;;11.20;99.90;;;;;;5087557;28;20411;-79
2023/01/07 12:53:20;;;;;;;1.87;0.90;;;11.30;99.90;;;;;;5071078;28;20480;-79
2023/01/07 12:55:50;;;;;;;3.05;1.20;;;11.30;99.90;;;;;;5089778;28;20441;-79